• Join FlightAware (Why Join?)
  • Login
  • US Flag 
10:33PM EDT


 

Airport Tracker/Info


-or-


 

Live Flight TrackerFlight Track Log ✈ N1944E ✈ 23-Aug-2013 ✈ KBIL - KSDY

Flight Track Log - Related Links

Times and Time Zones

All times are in EDT time to prevent confusion due to time zone crossing. See the N1944E flight status page for this flight to view local times or setup timezone preferences in your user account.

Time Position Orientation Groundspeed Altitude Reporting Facility
EDT Latitude Longitude Course Direction KTS MPH feet Rate Location/Type
08:09AM 45.8525 -108.5156 62° Northeast 143 165 5,100  Level Salt Lake Center
08:10AM 45.8758 -108.4661 56° Northeast 151 174 5,700 540 Climbing Salt Lake Center
08:11AM 45.9003 -108.4161 55° Northeast 155 178 6,300 660 Climbing Salt Lake Center
08:12AM 45.9269 -108.3594 56° Northeast 158 182 7,100 660 Climbing Salt Lake Center
08:13AM 45.9514 -108.3056 57° Northeast 162 186 7,700 540 Climbing Salt Lake Center
08:14AM 45.9758 -108.2522 57° Northeast 162 186 8,300 600 Climbing Salt Lake Center
08:15AM 46.0014 -108.2000 55° Northeast 162 186 9,000 720 Climbing Salt Lake Center
08:16AM 46.0247 -108.1458 58° Northeast 161 185 9,800 720 Climbing Salt Lake Center
08:17AM 46.0508 -108.0883 57° Northeast 160 184 10,500 660 Climbing Salt Lake Center
08:18AM 46.0758 -108.0344 56° Northeast 163 188 11,200 600 Climbing Salt Lake Center
08:19AM 46.1003 -107.9797 57° Northeast 164 189 11,800 540 Climbing Salt Lake Center
08:20AM 46.1264 -107.9228 56° Northeast 172 198 12,400 600 Climbing Salt Lake Center
08:21AM 46.1517 -107.8589 60° Northeast 171 197 13,100 600 Climbing Salt Lake Center
08:22AM 46.1761 -107.7997 59° Northeast 173 199 13,700 600 Climbing Salt Lake Center
08:23AM 46.2008 -107.7403 59° Northeast 172 198 14,400 600 Climbing Salt Lake Center
08:24AM 46.2275 -107.6836 56° Northeast 172 198 15,000 300 Climbing Salt Lake Center
08:25AM 46.2564 -107.6189 57° Northeast 193 222 15,100  Climbing Salt Lake Center
08:26AM 46.2892 -107.5428 58° Northeast 205 236 15,100  Level Salt Lake Center
08:27AM 46.3186 -107.4781 57° Northeast 200 230 15,100  Level Salt Lake Center
08:28AM 46.3492 -107.4106 57° Northeast 199 229 15,100  Level Salt Lake Center
08:29AM 46.3808 -107.3444 55° Northeast 201 231 15,100  Level Salt Lake Center
08:30AM 46.4125 -107.2764 56° Northeast 202 232 15,100  Level Salt Lake Center
08:31AM 46.4422 -107.2086 58° Northeast 202 232 15,100  Level Salt Lake Center
08:32AM 46.4725 -107.1375 58° Northeast 203 234 15,100 -60 Level Salt Lake Center
08:33AM 46.5028 -107.0697 57° Northeast 203 234 15,000 -60 Descending Salt Lake Center
08:34AM 46.5317 -106.9989 59° Northeast 203 234 15,000  Level Salt Lake Center
08:35AM 46.5611 -106.9294 58° Northeast 203 234 15,000  Level Salt Lake Center
08:36AM 46.5908 -106.8597 58° Northeast 203 234 15,000  Level Salt Lake Center
08:37AM 46.6206 -106.7967 56° Northeast 199 229 15,000  Level Salt Lake Center
08:38AM 46.6503 -106.7317 56° Northeast 196 226 15,000  Level Salt Lake Center
08:39AM 46.6750 -106.6619 63° Northeast 195 224 15,000  Level Salt Lake Center
08:40AM 46.7019 -106.5925 60° Northeast 195 224 15,000  Level Salt Lake Center
08:41AM 46.7317 -106.5250 57° Northeast 196 226 15,000  Level Salt Lake Center
08:42AM 46.7631 -106.4578 56° Northeast 199 229 15,000  Level Salt Lake Center
08:43AM 46.7928 -106.3903 57° Northeast 199 229 15,000  Level Salt Lake Center
08:44AM 46.8214 -106.3206 59° Northeast 199 229 15,000  Level Salt Lake Center
08:45AM 46.8572 -106.2381 58° Northeast 200 230 15,000  Level Salt Lake Center
08:46AM 46.8878 -106.1692 57° Northeast 201 231 15,000  Level Salt Lake Center
08:47AM 46.9186 -106.1011 56° Northeast 202 232 15,000  Level Salt Lake Center
08:48AM 46.9469 -106.0308 59° Northeast 202 232 15,000  Level Salt Lake Center
08:49AM 46.9756 -105.9608 59° Northeast 201 231 15,000  Level Salt Lake Center
08:50AM 47.0039 -105.8917 59° Northeast 200 230 15,000  Level Salt Lake Center
08:52AM 47.0336 -105.8219 58° Northeast 201 231 15,000  Level Salt Lake Center
08:53AM 47.0636 -105.7525 58° Northeast 201 231 15,000  Level Salt Lake Center
08:54AM 47.0936 -105.6825 58° Northeast 202 232 15,000  Level Salt Lake Center
08:55AM 47.1228 -105.6111 59° Northeast 203 234 15,000  Level Salt Lake Center
08:56AM 47.1525 -105.5406 58° Northeast 203 234 15,000 -60 Level Salt Lake Center
08:57AM 47.1819 -105.4700 58° Northeast 203 234 14,900 -300 Descending Salt Lake Center
08:58AM 47.2103 -105.3947 61° Northeast 206 237 14,400 -600 Descending Salt Lake Center
08:59AM 47.2417 -105.3175 59° Northeast 213 245 13,800 -660 Descending Salt Lake Center
09:00AM 47.2744 -105.2392 58° Northeast 219 252 13,100 -900 Descending Salt Lake Center
09:01AM 47.3167 -105.1447 57° Northeast 225 259 12,000 -960 Descending Salt Lake Center
09:02AM 47.3494 -105.0672 58° Northeast 226 260 11,200 -600 Descending Salt Lake Center
09:03AM 47.3806 -104.9881 60° Northeast 224 258 10,800 -600 Descending Salt Lake Center
09:04AM 47.4122 -104.9097 59° Northeast 224 258 10,100 -780 Descending Salt Lake Center
09:05AM 47.4425 -104.8342 59° Northeast 220 253 9,300 -780 Descending Salt Lake Center
09:06AM 47.4744 -104.7617 57° Northeast 215 247 8,600 -840 Descending Salt Lake Center
09:07AM 47.5075 -104.6906 55° Northeast 212 244 7,700 -840 Descending Salt Lake Center
09:08AM 47.5364 -104.6178 60° Northeast 209 241 6,900 -840 Descending Salt Lake Center
09:09AM 47.5639 -104.5464 60° Northeast 205 236 6,100 -840 Descending Salt Lake Center